| Date | Time | Temp. (oF) | Dew Point (oF) | Rel. Hum. (%) | Press. (in.) | Wind Dir. | Wind Speed (mph) | Hourly Rainfall (in.) |
|
|---|---|---|---|---|---|---|---|---|---|
| 1 | 05/18 | 00:00 | 53 | 33 | 48 | 30.19 | N | 3 | 0.00 |
| 2 | 05/17 | 23:00 | 54 | 34 | 48 | 30.17 | N | 3 | 0.00 |
| 3 | 05/17 | 22:00 | 55 | 33 | 45 | 30.16 | N | 2 | 0.00 |
| 4 | 05/17 | 21:00 | 56 | 34 | 45 | 30.14 | NNW | 1 | 0.00 |
| 5 | 05/17 | 20:00 | 58 | 35 | 43 | 30.12 | NE | 5 | 0.00 |
| 6 | 05/17 | 19:00 | 59 | 35 | 42 | 30.11 | NNE | 3 | 0.00 |
| 7 | 05/17 | 18:00 | 60 | 36 | 42 | 30.10 | NNE | 4 | 0.00 |
| 8 | 05/17 | 17:00 | 60 | 37 | 44 | 30.09 | NNW | 7 | 0.00 |
| 9 | 05/17 | 16:00 | 59 | 36 | 44 | 30.09 | N | 12 | 0.00 |
| 10 | 05/17 | 15:00 | 59 | 40 | 50 | 30.10 | NNE | 8 | 0.00 |
| 11 | 05/17 | 14:00 | 57 | 40 | 54 | 30.11 | N | 8 | 0.00 |
| 12 | 05/17 | 13:00 | 55 | 39 | 56 | 30.12 | NNW | 7 | 0.00 |
| 13 | 05/17 | 12:00 | 55 | 40 | 59 | 30.12 | N | 13 | 0.00 |
| 14 | 05/17 | 11:00 | 55 | 42 | 63 | 30.10 | NNE | 11 | 0.00 |
| 15 | 05/17 | 10:00 | 54 | 45 | 72 | 30.09 | N | 7 | 0.00 |
| 16 | 05/17 | 09:00 | 54 | 49 | 84 | 30.08 | N | 20 | 0.00 |
| 17 | 05/17 | 08:00 | 58 | 53 | 86 | 30.03 | N | 4 | 0.00 |
| 18 | 05/17 | 07:00 | 60 | 58 | 95 | 29.98 | NW | 6 | 0.01 |
| 19 | 05/17 | 06:00 | 59 | 57 | 95 | 29.95 | WSW | 0 | 0.02 |
| 20 | 05/17 | 05:00 | 61 | 56 | 86 | 29.93 | NNW | 5 | 0.00 |
| 21 | 05/17 | 04:00 | 65 | 63 | 94 | 29.90 | N | 4 | 0.00 |
| 22 | 05/17 | 03:00 | 66 | 65 | 97 | 29.88 | W | 6 | 0.00 |
| 23 | 05/17 | 02:00 | 66 | 65 | 98 | 29.88 | SW | 5 | 0.00 |
| 24 | 05/17 | 01:00 | 66 | 65 | 99 | 29.88 | SW | 2 | 0.00 |